Terminal Aerodrome Forecast
Issued by NWS

Home | Current Version | Previous Version | Text Only | Print | Product List | Glossary On
Versions: 1 2 3 4 5 6 7 8 9 10 11 12 13 14 15 16 17 18 19 20 21 22 23 24 25 26 27 28 29 30 31 32 33 34 35 36 37
000
FTUS41 KOKX 241733
TAFHPN
TAF
KHPN 241733Z 2418/2518 35009KT P6SM SKC
     FM242100 30008KT P6SM SKC
     FM242300 20006KT P6SM SKC
     FM250000 VRB03KT P6SM SKC
     FM251300 26005KT P6SM SKC
     FM251600 25009KT P6SM SKC
      AMD NOT SKED=

USA.gov is the U.S. government's official web portal to all federal, state and local government web resources and services.